A- A+ FrançaisEnglishEspañol中国

Services sur Internet Soldes sur Internet Des idées de cadeaux Météo Météo aéro

La météo à : Autours de vous Tarbes-Lourdes-PyrénéesCarcassone-SalvazaNimes-Courbessac Toulouse-Blagnac

La météo aéronautique pour les pilotes, la préparation du vol avec les METAR (METeorological Aerodrome Report, message d'observation des conditions météorologiques pour l'aviation) et Les TAF (Terminal Aerodrome Forecast : message de prévision à court terme des conditions météorologiques pour l'aviation). Et les autres ressources comme les VAC (Visual Approch Chart) et les NOTAM (Notice To Airman) pour préprer les vols.

Aéroport Arviat (Canada) / OACI CYEK/ IATA YEK

L'altitude de l'aéroport Arviat est de 10 m = 33 ft. Il est situé à proximité de Arviat (Canada). La météo générale à 5 jours est disponible pour Rankin Inlet situé à 217.9 km.

METAR de l'aéroport Arviat - CYEK

CYEK 231100Z AUTO 36022KT 9SM FEW170 M06/M07 A2999 RMK SLP158

Décodage du METAR de l'aéroport Arviat (CA)

METAR émis par CYEK le mercredi 23 octobre 2019 à 11:00 heure TU. C'est un METAR généré automatiquement. Attention ce METAR est obsolète car il a été émis il y a 10 heure et 44 minutes.

La visibilité est de 14.5 km = 9 sm.

La température est de -6°C = 21 °F et le point rosée est de -7°C = 19 °F . Ce qui correspond à 93% d'humidité relative.

Le QNH est de 1016 hPa = 30 inHg

Vent de 22 kt = 41 km/h, orienté à 360°.

Nuages : Quelques nuages à 17000 ft = 5180 mètres.

RMK SLP158

TAF de l'aéroport Arviat - CYEK

CYEK 150859Z 1508/1518 36020G30KT P6SM SCT006 OVC012 TEMPO 1508/1512 2SM -SN BR OVC006 RMK FCST BASED ON AUTO OBS. NXT FCST BY 151200Z

CYEK 150859Z 1508/1518 36020G30KT P6SM nuages épars à 006 couverture nuageuse soudée à 012 temporairement 1508/1512 2SM faible SN brume couverture nuageuse soudée à 006 remarques trombe ST BASED ON AUTO OBS. NXT trombe ST BY 151200Z

Aéroport à proximité de Arviat

Météo générale à 5 jours à Rankin Inlet (217.9 km)Aéroport Whale Cove (149 km)Aéroport Rankin Inlet (217 km)Aéroport Churchill (262 km)Aéroport Chesterfield Inlet (304 km)Aéroport Tadoule Lake (363 km)Aéroport Baker Lake (371 km)

Vue aérienne de l'aéroport Arviat

NOTAM de l'aéroport Arviat

Les NOTAM sont fournis sans aucune garantie de leur actualité. Le pilote est le seul responsable de la vérification de sa validité avant de l'utiliser opérationnellement pour préparer un vol ou l'utiliser lors de sa navigation.

Pas de NOTAM

Sources des données